sensor_id;sensor_type;location;lat;lon;timestamp;P1;durP1;ratioP1;P2;durP2;ratioP2
14518;SDS011;7346;50.846;4.388;2022-07-23T00:00:52;13.45;;;12.05;;
14518;SDS011;7346;50.846;4.388;2022-07-23T00:03:18;14.85;;;13.30;;
14518;SDS011;7346;50.846;4.388;2022-07-23T00:05:45;17.60;;;13.45;;
14518;SDS011;7346;50.846;4.388;2022-07-23T00:08:14;17.48;;;13.82;;
14518;SDS011;7346;50.846;4.388;2022-07-23T00:10:41;18.50;;;13.77;;
14518;SDS011;7346;50.846;4.388;2022-07-23T00:13:08;16.48;;;13.35;;
14518;SDS011;7346;50.846;4.388;2022-07-23T00:15:34;17.67;;;13.57;;
14518;SDS011;7346;50.846;4.388;2022-07-23T00:18:02;18.88;;;13.63;;
14518;SDS011;7346;50.846;4.388;2022-07-23T00:20:29;17.15;;;13.82;;
14518;SDS011;7346;50.846;4.388;2022-07-23T00:22:56;16.33;;;14.40;;
14518;SDS011;7346;50.846;4.388;2022-07-23T00:25:26;17.08;;;14.55;;
14518;SDS011;7346;50.846;4.388;2022-07-23T00:27:53;19.80;;;13.65;;
14518;SDS011;7346;50.846;4.388;2022-07-23T00:30:20;16.73;;;14.15;;
14518;SDS011;7346;50.846;4.388;2022-07-23T00:32:47;17.88;;;14.30;;
14518;SDS011;7346;50.846;4.388;2022-07-23T00:35:16;17.83;;;14.77;;
14518;SDS011;7346;50.846;4.388;2022-07-23T00:37:46;19.17;;;14.82;;
14518;SDS011;7346;50.846;4.388;2022-07-23T00:40:14;18.45;;;14.85;;
14518;SDS011;7346;50.846;4.388;2022-07-23T00:42:43;16.38;;;14.70;;
14518;SDS011;7346;50.846;4.388;2022-07-23T00:45:10;16.48;;;14.75;;
14518;SDS011;7346;50.846;4.388;2022-07-23T00:47:37;16.10;;;14.30;;
14518;SDS011;7346;50.846;4.388;2022-07-23T00:50:05;16.40;;;14.68;;
14518;SDS011;7346;50.846;4.388;2022-07-23T00:52:34;16.17;;;14.52;;
14518;SDS011;7346;50.846;4.388;2022-07-23T00:55:03;17.95;;;15.23;;
14518;SDS011;7346;50.846;4.388;2022-07-23T00:57:30;19.63;;;14.90;;
14518;SDS011;7346;50.846;4.388;2022-07-23T01:00:01;17.55;;;15.75;;
14518;SDS011;7346;50.846;4.388;2022-07-23T01:02:28;16.42;;;14.80;;
14518;SDS011;7346;50.846;4.388;2022-07-23T01:04:55;17.30;;;15.52;;
14518;SDS011;7346;50.846;4.388;2022-07-23T01:07:22;17.48;;;15.25;;
14518;SDS011;7346;50.846;4.388;2022-07-23T01:09:50;19.58;;;15.65;;
14518;SDS011;7346;50.846;4.388;2022-07-23T01:12:18;19.70;;;16.00;;
14518;SDS011;7346;50.846;4.388;2022-07-23T01:14:45;19.48;;;15.05;;
14518;SDS011;7346;50.846;4.388;2022-07-23T01:17:21;18.73;;;16.45;;
14518;SDS011;7346;50.846;4.388;2022-07-23T01:19:48;19.90;;;16.20;;
14518;SDS011;7346;50.846;4.388;2022-07-23T01:22:16;18.85;;;16.10;;
14518;SDS011;7346;50.846;4.388;2022-07-23T01:24:46;18.85;;;16.02;;
14518;SDS011;7346;50.846;4.388;2022-07-23T01:27:13;18.52;;;15.27;;
14518;SDS011;7346;50.846;4.388;2022-07-23T01:29:42;20.27;;;16.67;;
14518;SDS011;7346;50.846;4.388;2022-07-23T01:32:11;18.20;;;16.10;;
14518;SDS011;7346;50.846;4.388;2022-07-23T01:34:38;19.42;;;15.82;;
14518;SDS011;7346;50.846;4.388;2022-07-23T01:37:07;18.45;;;16.40;;
14518;SDS011;7346;50.846;4.388;2022-07-23T01:39:34;20.23;;;16.98;;
14518;SDS011;7346;50.846;4.388;2022-07-23T01:42:02;18.45;;;16.58;;
14518;SDS011;7346;50.846;4.388;2022-07-23T01:44:29;21.33;;;16.02;;
14518;SDS011;7346;50.846;4.388;2022-07-23T01:46:56;19.40;;;16.55;;
14518;SDS011;7346;50.846;4.388;2022-07-23T01:49:23;21.02;;;16.75;;
14518;SDS011;7346;50.846;4.388;2022-07-23T01:51:50;20.52;;;16.30;;
14518;SDS011;7346;50.846;4.388;2022-07-23T01:54:26;18.45;;;16.48;;
14518;SDS011;7346;50.846;4.388;2022-07-23T01:56:53;21.63;;;16.52;;
14518;SDS011;7346;50.846;4.388;2022-07-23T01:59:22;17.80;;;16.00;;
14518;SDS011;7346;50.846;4.388;2022-07-23T02:01:50;18.48;;;16.65;;
14518;SDS011;7346;50.846;4.388;2022-07-23T02:04:17;19.73;;;16.60;;
14518;SDS011;7346;50.846;4.388;2022-07-23T02:06:44;19.63;;;16.33;;
14518;SDS011;7346;50.846;4.388;2022-07-23T02:09:11;17.15;;;15.30;;
14518;SDS011;7346;50.846;4.388;2022-07-23T02:11:39;17.92;;;15.95;;
14518;SDS011;7346;50.846;4.388;2022-07-23T02:14:06;16.40;;;14.65;;
14518;SDS011;7346;50.846;4.388;2022-07-23T02:16:34;18.52;;;15.52;;
14518;SDS011;7346;50.846;4.388;2022-07-23T02:19:04;19.80;;;14.68;;
14518;SDS011;7346;50.846;4.388;2022-07-23T02:21:33;17.27;;;15.45;;
14518;SDS011;7346;50.846;4.388;2022-07-23T02:24:00;18.38;;;15.35;;
14518;SDS011;7346;50.846;4.388;2022-07-23T02:26:30;23.15;;;15.60;;
14518;SDS011;7346;50.846;4.388;2022-07-23T02:28:59;17.35;;;14.30;;
14518;SDS011;7346;50.846;4.388;2022-07-23T02:31:27;18.48;;;15.57;;
14518;SDS011;7346;50.846;4.388;2022-07-23T02:33:56;17.88;;;14.73;;
14518;SDS011;7346;50.846;4.388;2022-07-23T02:36:23;17.42;;;15.48;;
14518;SDS011;7346;50.846;4.388;2022-07-23T02:38:50;23.88;;;14.85;;
14518;SDS011;7346;50.846;4.388;2022-07-23T02:41:17;19.13;;;15.77;;
14518;SDS011;7346;50.846;4.388;2022-07-23T02:43:44;16.95;;;14.98;;
14518;SDS011;7346;50.846;4.388;2022-07-23T02:46:11;21.52;;;16.65;;
14518;SDS011;7346;50.846;4.388;2022-07-23T02:48:38;19.60;;;16.48;;
14518;SDS011;7346;50.846;4.388;2022-07-23T02:51:06;17.13;;;15.32;;
14518;SDS011;7346;50.846;4.388;2022-07-23T02:53:33;17.98;;;15.98;;
14518;SDS011;7346;50.846;4.388;2022-07-23T02:56:00;18.23;;;15.32;;
14518;SDS011;7346;50.846;4.388;2022-07-23T02:58:27;18.05;;;15.57;;
14518;SDS011;7346;50.846;4.388;2022-07-23T03:00:54;19.05;;;16.25;;
14518;SDS011;7346;50.846;4.388;2022-07-23T03:03:21;17.60;;;15.80;;
14518;SDS011;7346;50.846;4.388;2022-07-23T03:05:49;19.00;;;15.68;;
14518;SDS011;7346;50.846;4.388;2022-07-23T03:08:17;19.92;;;16.40;;
14518;SDS011;7346;50.846;4.388;2022-07-23T03:10:44;19.42;;;16.23;;
14518;SDS011;7346;50.846;4.388;2022-07-23T03:13:11;17.00;;;15.10;;
14518;SDS011;7346;50.846;4.388;2022-07-23T03:15:38;17.67;;;15.82;;
14518;SDS011;7346;50.846;4.388;2022-07-23T03:18:05;21.30;;;15.98;;
14518;SDS011;7346;50.846;4.388;2022-07-23T03:20:32;17.70;;;15.45;;
14518;SDS011;7346;50.846;4.388;2022-07-23T03:23:01;19.13;;;15.73;;
14518;SDS011;7346;50.846;4.388;2022-07-23T03:25:30;18.15;;;15.38;;
14518;SDS011;7346;50.846;4.388;2022-07-23T03:27:57;17.27;;;15.05;;
14518;SDS011;7346;50.846;4.388;2022-07-23T03:30:24;18.45;;;15.68;;
14518;SDS011;7346;50.846;4.388;2022-07-23T03:32:51;17.38;;;14.88;;
14518;SDS011;7346;50.846;4.388;2022-07-23T03:35:18;17.60;;;15.75;;
14518;SDS011;7346;50.846;4.388;2022-07-23T03:37:45;22.15;;;15.90;;
14518;SDS011;7346;50.846;4.388;2022-07-23T03:40:12;18.02;;;15.85;;
14518;SDS011;7346;50.846;4.388;2022-07-23T03:42:40;17.60;;;15.10;;
14518;SDS011;7346;50.846;4.388;2022-07-23T03:45:08;20.38;;;15.02;;
14518;SDS011;7346;50.846;4.388;2022-07-23T03:47:36;16.95;;;15.13;;
14518;SDS011;7346;50.846;4.388;2022-07-23T03:50:04;16.77;;;14.95;;
14518;SDS011;7346;50.846;4.388;2022-07-23T03:52:32;16.58;;;14.80;;
14518;SDS011;7346;50.846;4.388;2022-07-23T03:54:59;19.80;;;15.35;;
14518;SDS011;7346;50.846;4.388;2022-07-23T03:57:26;20.42;;;16.45;;
14518;SDS011;7346;50.846;4.388;2022-07-23T03:59:54;18.25;;;16.15;;
14518;SDS011;7346;50.846;4.388;2022-07-23T04:02:21;17.70;;;15.90;;
14518;SDS011;7346;50.846;4.388;2022-07-23T04:04:48;19.23;;;16.88;;
14518;SDS011;7346;50.846;4.388;2022-07-23T04:07:15;18.88;;;16.80;;
14518;SDS011;7346;50.846;4.388;2022-07-23T04:09:43;19.25;;;16.17;;
14518;SDS011;7346;50.846;4.388;2022-07-23T04:12:10;17.85;;;15.98;;
14518;SDS011;7346;50.846;4.388;2022-07-23T04:14:37;17.60;;;15.68;;
14518;SDS011;7346;50.846;4.388;2022-07-23T04:17:05;17.95;;;16.05;;
14518;SDS011;7346;50.846;4.388;2022-07-23T04:19:32;19.52;;;16.38;;
14518;SDS011;7346;50.846;4.388;2022-07-23T04:22:00;17.58;;;15.73;;
14518;SDS011;7346;50.846;4.388;2022-07-23T04:24:27;18.73;;;15.80;;
14518;SDS011;7346;50.846;4.388;2022-07-23T04:26:54;20.80;;;16.15;;
14518;SDS011;7346;50.846;4.388;2022-07-23T04:29:21;19.55;;;15.88;;
14518;SDS011;7346;50.846;4.388;2022-07-23T04:31:48;17.65;;;15.80;;
14518;SDS011;7346;50.846;4.388;2022-07-23T04:34:17;19.85;;;15.88;;
14518;SDS011;7346;50.846;4.388;2022-07-23T04:36:44;19.77;;;16.02;;
14518;SDS011;7346;50.846;4.388;2022-07-23T04:39:11;17.50;;;14.93;;
14518;SDS011;7346;50.846;4.388;2022-07-23T04:41:38;18.63;;;15.32;;
14518;SDS011;7346;50.846;4.388;2022-07-23T04:44:05;16.55;;;14.27;;
14518;SDS011;7346;50.846;4.388;2022-07-23T04:46:32;18.05;;;14.80;;
14518;SDS011;7346;50.846;4.388;2022-07-23T04:48:59;16.33;;;14.43;;
14518;SDS011;7346;50.846;4.388;2022-07-23T04:51:28;18.88;;;14.10;;
14518;SDS011;7346;50.846;4.388;2022-07-23T04:53:55;16.95;;;15.10;;
14518;SDS011;7346;50.846;4.388;2022-07-23T04:56:22;16.42;;;14.55;;
14518;SDS011;7346;50.846;4.388;2022-07-23T04:58:49;17.80;;;13.15;;
14518;SDS011;7346;50.846;4.388;2022-07-23T05:01:16;18.35;;;14.07;;
14518;SDS011;7346;50.846;4.388;2022-07-23T05:03:43;16.20;;;14.38;;
14518;SDS011;7346;50.846;4.388;2022-07-23T05:06:10;19.23;;;14.82;;
14518;SDS011;7346;50.846;4.388;2022-07-23T05:08:39;18.40;;;14.02;;
14518;SDS011;7346;50.846;4.388;2022-07-23T05:11:06;16.27;;;14.45;;
14518;SDS011;7346;50.846;4.388;2022-07-23T05:13:33;16.83;;;14.18;;
14518;SDS011;7346;50.846;4.388;2022-07-23T05:16:00;14.68;;;13.25;;
14518;SDS011;7346;50.846;4.388;2022-07-23T05:18:27;16.45;;;13.57;;
14518;SDS011;7346;50.846;4.388;2022-07-23T05:20:54;16.90;;;13.45;;
14518;SDS011;7346;50.846;4.388;2022-07-23T05:23:21;15.90;;;13.25;;
14518;SDS011;7346;50.846;4.388;2022-07-23T05:25:51;15.07;;;12.77;;
14518;SDS011;7346;50.846;4.388;2022-07-23T05:28:17;16.83;;;13.93;;
14518;SDS011;7346;50.846;4.388;2022-07-23T05:30:44;14.15;;;12.75;;
14518;SDS011;7346;50.846;4.388;2022-07-23T05:33:11;17.23;;;13.02;;
14518;SDS011;7346;50.846;4.388;2022-07-23T05:35:38;13.43;;;12.13;;
14518;SDS011;7346;50.846;4.388;2022-07-23T05:38:05;17.60;;;12.98;;
14518;SDS011;7346;50.846;4.388;2022-07-23T05:40:32;14.07;;;12.25;;
14518;SDS011;7346;50.846;4.388;2022-07-23T05:43:00;13.82;;;11.82;;
14518;SDS011;7346;50.846;4.388;2022-07-23T05:45:27;14.88;;;12.20;;
14518;SDS011;7346;50.846;4.388;2022-07-23T05:47:54;14.18;;;11.48;;
14518;SDS011;7346;50.846;4.388;2022-07-23T05:50:21;13.68;;;11.93;;
14518;SDS011;7346;50.846;4.388;2022-07-23T05:52:48;16.52;;;11.73;;
14518;SDS011;7346;50.846;4.388;2022-07-23T05:55:15;16.67;;;11.98;;
14518;SDS011;7346;50.846;4.388;2022-07-23T05:57:42;15.07;;;12.30;;
14518;SDS011;7346;50.846;4.388;2022-07-23T06:00:11;15.63;;;12.43;;
14518;SDS011;7346;50.846;4.388;2022-07-23T06:02:39;16.67;;;12.85;;
14518;SDS011;7346;50.846;4.388;2022-07-23T06:05:06;14.38;;;12.20;;
14518;SDS011;7346;50.846;4.388;2022-07-23T06:07:34;13.68;;;12.32;;
14518;SDS011;7346;50.846;4.388;2022-07-23T06:10:01;16.25;;;12.80;;
14518;SDS011;7346;50.846;4.388;2022-07-23T06:12:29;12.98;;;11.63;;
14518;SDS011;7346;50.846;4.388;2022-07-23T06:14:56;16.55;;;12.65;;
14518;SDS011;7346;50.846;4.388;2022-07-23T06:17:24;16.50;;;11.38;;
14518;SDS011;7346;50.846;4.388;2022-07-23T06:19:51;15.00;;;11.95;;
14518;SDS011;7346;50.846;4.388;2022-07-23T06:22:19;15.40;;;11.85;;
14518;SDS011;7346;50.846;4.388;2022-07-23T06:24:46;18.33;;;11.63;;
14518;SDS011;7346;50.846;4.388;2022-07-23T06:27:13;15.27;;;12.90;;
14518;SDS011;7346;50.846;4.388;2022-07-23T06:29:40;14.00;;;12.52;;
14518;SDS011;7346;50.846;4.388;2022-07-23T06:32:07;14.07;;;12.35;;
14518;SDS011;7346;50.846;4.388;2022-07-23T06:34:35;13.68;;;11.88;;
14518;SDS011;7346;50.846;4.388;2022-07-23T06:37:02;19.25;;;12.32;;
14518;SDS011;7346;50.846;4.388;2022-07-23T06:39:30;14.40;;;11.88;;
14518;SDS011;7346;50.846;4.388;2022-07-23T06:41:57;13.85;;;10.35;;
14518;SDS011;7346;50.846;4.388;2022-07-23T06:44:24;12.88;;;10.32;;
14518;SDS011;7346;50.846;4.388;2022-07-23T06:46:51;14.35;;;11.25;;
14518;SDS011;7346;50.846;4.388;2022-07-23T06:49:18;13.07;;;11.50;;
14518;SDS011;7346;50.846;4.388;2022-07-23T06:51:46;13.02;;;11.73;;
14518;SDS011;7346;50.846;4.388;2022-07-23T06:54:13;14.05;;;11.30;;
14518;SDS011;7346;50.846;4.388;2022-07-23T06:56:41;12.38;;;10.98;;
14518;SDS011;7346;50.846;4.388;2022-07-23T06:59:08;15.32;;;10.98;;
14518;SDS011;7346;50.846;4.388;2022-07-23T07:01:35;17.83;;;11.60;;
14518;SDS011;7346;50.846;4.388;2022-07-23T07:04:02;13.75;;;10.40;;
14518;SDS011;7346;50.846;4.388;2022-07-23T07:06:31;13.85;;;10.00;;
14518;SDS011;7346;50.846;4.388;2022-07-23T07:08:59;16.70;;;11.20;;
14518;SDS011;7346;50.846;4.388;2022-07-23T07:11:32;12.88;;;11.25;;
14518;SDS011;7346;50.846;4.388;2022-07-23T07:14:00;12.40;;;11.15;;
14518;SDS011;7346;50.846;4.388;2022-07-23T07:16:27;13.88;;;11.27;;
14518;SDS011;7346;50.846;4.388;2022-07-23T07:18:54;17.15;;;11.32;;
14518;SDS011;7346;50.846;4.388;2022-07-23T07:21:21;16.45;;;11.25;;
14518;SDS011;7346;50.846;4.388;2022-07-23T07:23:48;13.32;;;11.25;;
14518;SDS011;7346;50.846;4.388;2022-07-23T07:26:16;12.27;;;10.70;;
14518;SDS011;7346;50.846;4.388;2022-07-23T07:28:45;13.60;;;11.13;;
14518;SDS011;7346;50.846;4.388;2022-07-23T07:31:12;12.32;;;11.02;;
14518;SDS011;7346;50.846;4.388;2022-07-23T07:33:45;12.93;;;10.68;;
14518;SDS011;7346;50.846;4.388;2022-07-23T07:36:13;17.40;;;10.95;;
14518;SDS011;7346;50.846;4.388;2022-07-23T07:38:40;15.77;;;10.30;;
14518;SDS011;7346;50.846;4.388;2022-07-23T07:41:07;13.40;;;9.60;;
14518;SDS011;7346;50.846;4.388;2022-07-23T07:43:39;11.93;;;9.60;;
14518;SDS011;7346;50.846;4.388;2022-07-23T07:46:07;11.63;;;10.30;;
14518;SDS011;7346;50.846;4.388;2022-07-23T07:48:37;11.25;;;9.75;;
14518;SDS011;7346;50.846;4.388;2022-07-23T07:51:04;16.40;;;9.10;;
14518;SDS011;7346;50.846;4.388;2022-07-23T07:53:32;12.23;;;9.77;;
14518;SDS011;7346;50.846;4.388;2022-07-23T07:55:59;12.02;;;8.93;;
14518;SDS011;7346;50.846;4.388;2022-07-23T07:58:29;12.38;;;9.00;;
14518;SDS011;7346;50.846;4.388;2022-07-23T08:00:57;11.52;;;8.60;;
14518;SDS011;7346;50.846;4.388;2022-07-23T08:03:25;11.70;;;7.82;;
14518;SDS011;7346;50.846;4.388;2022-07-23T08:05:52;12.90;;;8.48;;
14518;SDS011;7346;50.846;4.388;2022-07-23T08:08:19;11.88;;;9.18;;
14518;SDS011;7346;50.846;4.388;2022-07-23T08:10:46;10.27;;;8.88;;
14518;SDS011;7346;50.846;4.388;2022-07-23T08:13:13;10.90;;;8.95;;
14518;SDS011;7346;50.846;4.388;2022-07-23T08:15:41;17.27;;;9.95;;
14518;SDS011;7346;50.846;4.388;2022-07-23T08:18:11;13.48;;;8.38;;
14518;SDS011;7346;50.846;4.388;2022-07-23T08:20:38;9.77;;;8.75;;
14518;SDS011;7346;50.846;4.388;2022-07-23T08:23:06;12.10;;;9.43;;
14518;SDS011;7346;50.846;4.388;2022-07-23T08:25:34;11.30;;;9.25;;
14518;SDS011;7346;50.846;4.388;2022-07-23T08:28:03;13.85;;;9.02;;
14518;SDS011;7346;50.846;4.388;2022-07-23T08:30:32;15.02;;;9.82;;
14518;SDS011;7346;50.846;4.388;2022-07-23T08:33:01;15.63;;;9.32;;
14518;SDS011;7346;50.846;4.388;2022-07-23T08:35:31;10.68;;;8.00;;
14518;SDS011;7346;50.846;4.388;2022-07-23T08:37:59;10.15;;;8.98;;
14518;SDS011;7346;50.846;4.388;2022-07-23T08:40:28;11.55;;;8.52;;
14518;SDS011;7346;50.846;4.388;2022-07-23T08:42:56;11.52;;;8.32;;
14518;SDS011;7346;50.846;4.388;2022-07-23T08:45:24;11.15;;;8.40;;
14518;SDS011;7346;50.846;4.388;2022-07-23T08:47:53;16.42;;;8.68;;
14518;SDS011;7346;50.846;4.388;2022-07-23T08:50:23;12.00;;;7.63;;
14518;SDS011;7346;50.846;4.388;2022-07-23T08:52:52;14.52;;;8.27;;
14518;SDS011;7346;50.846;4.388;2022-07-23T08:55:22;9.15;;;7.75;;
14518;SDS011;7346;50.846;4.388;2022-07-23T08:57:50;12.05;;;8.35;;
14518;SDS011;7346;50.846;4.388;2022-07-23T09:00:19;11.18;;;8.15;;
14518;SDS011;7346;50.846;4.388;2022-07-23T09:02:46;11.65;;;7.40;;
14518;SDS011;7346;50.846;4.388;2022-07-23T09:05:14;11.20;;;7.68;;
14518;SDS011;7346;50.846;4.388;2022-07-23T09:10:46;10.15;;;7.90;;
14518;SDS011;7346;50.846;4.388;2022-07-23T09:13:25;10.60;;;7.57;;
14518;SDS011;7346;50.846;4.388;2022-07-23T09:16:04;9.10;;;7.07;;
14518;SDS011;7346;50.846;4.388;2022-07-23T09:18:38;8.65;;;7.35;;
14518;SDS011;7346;50.846;4.388;2022-07-23T09:21:09;9.80;;;6.70;;
14518;SDS011;7346;50.846;4.388;2022-07-23T09:23:41;9.98;;;7.07;;
14518;SDS011;7346;50.846;4.388;2022-07-23T09:26:19;8.40;;;7.28;;
14518;SDS011;7346;50.846;4.388;2022-07-23T09:28:52;8.70;;;7.32;;
14518;SDS011;7346;50.846;4.388;2022-07-23T09:31:21;10.27;;;6.68;;
14518;SDS011;7346;50.846;4.388;2022-07-23T09:33:50;10.10;;;6.85;;
14518;SDS011;7346;50.846;4.388;2022-07-23T09:36:26;9.57;;;6.75;;
14518;SDS011;7346;50.846;4.388;2022-07-23T09:38:56;8.38;;;6.63;;
14518;SDS011;7346;50.846;4.388;2022-07-23T09:41:23;8.50;;;5.85;;
14518;SDS011;7346;50.846;4.388;2022-07-23T09:43:54;10.82;;;6.22;;
14518;SDS011;7346;50.846;4.388;2022-07-23T09:46:23;7.45;;;6.20;;
14518;SDS011;7346;50.846;4.388;2022-07-23T09:48:52;7.63;;;6.00;;
14518;SDS011;7346;50.846;4.388;2022-07-23T09:51:21;9.68;;;6.85;;
14518;SDS011;7346;50.846;4.388;2022-07-23T09:53:52;10.77;;;6.55;;
14518;SDS011;7346;50.846;4.388;2022-07-23T09:56:20;8.48;;;6.25;;
14518;SDS011;7346;50.846;4.388;2022-07-23T09:58:48;8.27;;;6.38;;
14518;SDS011;7346;50.846;4.388;2022-07-23T10:01:17;10.15;;;6.30;;
14518;SDS011;7346;50.846;4.388;2022-07-23T10:03:46;7.57;;;6.18;;
14518;SDS011;7346;50.846;4.388;2022-07-23T10:06:13;6.43;;;5.68;;
14518;SDS011;7346;50.846;4.388;2022-07-23T10:08:41;9.35;;;5.97;;
14518;SDS011;7346;50.846;4.388;2022-07-23T10:11:10;7.57;;;5.20;;
14518;SDS011;7346;50.846;4.388;2022-07-23T10:13:40;6.82;;;5.38;;
14518;SDS011;7346;50.846;4.388;2022-07-23T10:16:23;6.82;;;5.13;;
14518;SDS011;7346;50.846;4.388;2022-07-23T10:18:50;8.07;;;5.60;;
14518;SDS011;7346;50.846;4.388;2022-07-23T10:21:18;5.97;;;5.22;;
14518;SDS011;7346;50.846;4.388;2022-07-23T10:23:58;8.45;;;5.15;;
14518;SDS011;7346;50.846;4.388;2022-07-23T10:26:42;7.85;;;5.70;;
14518;SDS011;7346;50.846;4.388;2022-07-23T10:29:22;10.15;;;5.20;;
14518;SDS011;7346;50.846;4.388;2022-07-23T10:32:02;8.02;;;4.80;;
14518;SDS011;7346;50.846;4.388;2022-07-23T10:34:37;7.75;;;5.88;;
14518;SDS011;7346;50.846;4.388;2022-07-23T10:37:12;8.73;;;4.80;;
14518;SDS011;7346;50.846;4.388;2022-07-23T10:39:46;7.80;;;5.57;;
14518;SDS011;7346;50.846;4.388;2022-07-23T10:42:13;6.90;;;5.07;;
14518;SDS011;7346;50.846;4.388;2022-07-23T10:44:43;8.65;;;6.30;;
14518;SDS011;7346;50.846;4.388;2022-07-23T10:47:11;7.82;;;5.18;;
14518;SDS011;7346;50.846;4.388;2022-07-23T10:55:50;6.15;;;5.10;;
14518;SDS011;7346;50.846;4.388;2022-07-23T10:58:22;5.45;;;4.72;;
14518;SDS011;7346;50.846;4.388;2022-07-23T11:03:59;4.65;;;4.20;;
14518;SDS011;7346;50.846;4.388;2022-07-23T11:09:27;5.90;;;4.50;;
14518;SDS011;7346;50.846;4.388;2022-07-23T11:15:01;6.63;;;4.68;;
14518;SDS011;7346;50.846;4.388;2022-07-23T11:17:32;7.53;;;4.60;;
14518;SDS011;7346;50.846;4.388;2022-07-23T11:20:19;6.07;;;4.80;;
14518;SDS011;7346;50.846;4.388;2022-07-23T11:22:51;6.80;;;4.80;;
14518;SDS011;7346;50.846;4.388;2022-07-23T11:25:35;5.85;;;3.72;;
14518;SDS011;7346;50.846;4.388;2022-07-23T11:30:51;5.43;;;3.72;;
14518;SDS011;7346;50.846;4.388;2022-07-23T11:33:20;8.07;;;4.70;;
14518;SDS011;7346;50.846;4.388;2022-07-23T11:36:01;7.47;;;4.90;;
14518;SDS011;7346;50.846;4.388;2022-07-23T11:38:30;12.05;;;4.93;;
14518;SDS011;7346;50.846;4.388;2022-07-23T11:40:58;6.22;;;4.85;;
14518;SDS011;7346;50.846;4.388;2022-07-23T11:43:25;7.07;;;5.00;;
14518;SDS011;7346;50.846;4.388;2022-07-23T11:45:56;7.63;;;5.35;;
14518;SDS011;7346;50.846;4.388;2022-07-23T11:48:27;7.40;;;5.22;;
14518;SDS011;7346;50.846;4.388;2022-07-23T11:50:55;5.93;;;4.93;;
14518;SDS011;7346;50.846;4.388;2022-07-23T11:53:23;6.25;;;4.95;;
14518;SDS011;7346;50.846;4.388;2022-07-23T11:55:50;7.15;;;5.80;;
14518;SDS011;7346;50.846;4.388;2022-07-23T11:58:17;8.35;;;5.53;;
14518;SDS011;7346;50.846;4.388;2022-07-23T12:00:44;8.60;;;5.18;;
14518;SDS011;7346;50.846;4.388;2022-07-23T12:03:11;8.43;;;5.32;;
14518;SDS011;7346;50.846;4.388;2022-07-23T12:05:40;8.02;;;5.03;;
14518;SDS011;7346;50.846;4.388;2022-07-23T12:08:07;5.05;;;4.55;;
14518;SDS011;7346;50.846;4.388;2022-07-23T12:10:36;7.47;;;5.43;;
14518;SDS011;7346;50.846;4.388;2022-07-23T12:13:05;7.85;;;5.72;;
14518;SDS011;7346;50.846;4.388;2022-07-23T12:15:36;6.25;;;5.50;;
14518;SDS011;7346;50.846;4.388;2022-07-23T12:18:05;11.05;;;6.03;;
14518;SDS011;7346;50.846;4.388;2022-07-23T12:20:34;9.38;;;6.07;;
14518;SDS011;7346;50.846;4.388;2022-07-23T12:23:05;8.65;;;6.65;;
14518;SDS011;7346;50.846;4.388;2022-07-23T12:25:34;9.50;;;6.00;;
14518;SDS011;7346;50.846;4.388;2022-07-23T12:28:03;7.32;;;5.85;;
14518;SDS011;7346;50.846;4.388;2022-07-23T12:30:33;6.32;;;5.40;;
14518;SDS011;7346;50.846;4.388;2022-07-23T12:33:03;6.93;;;5.20;;
14518;SDS011;7346;50.846;4.388;2022-07-23T12:35:33;8.38;;;4.97;;
14518;SDS011;7346;50.846;4.388;2022-07-23T12:38:04;8.32;;;5.25;;
14518;SDS011;7346;50.846;4.388;2022-07-23T12:40:33;6.55;;;4.97;;
14518;SDS011;7346;50.846;4.388;2022-07-23T12:43:06;8.55;;;5.15;;
14518;SDS011;7346;50.846;4.388;2022-07-23T12:45:42;8.55;;;5.05;;
14518;SDS011;7346;50.846;4.388;2022-07-23T12:48:18;8.90;;;5.93;;
14518;SDS011;7346;50.846;4.388;2022-07-23T12:53:37;8.95;;;5.20;;
14518;SDS011;7346;50.846;4.388;2022-07-23T12:56:08;8.13;;;6.25;;
14518;SDS011;7346;50.846;4.388;2022-07-23T12:58:39;6.78;;;5.03;;
14518;SDS011;7346;50.846;4.388;2022-07-23T13:01:08;7.60;;;5.50;;
14518;SDS011;7346;50.846;4.388;2022-07-23T13:03:39;10.32;;;6.65;;
14518;SDS011;7346;50.846;4.388;2022-07-23T13:06:08;8.90;;;6.85;;
14518;SDS011;7346;50.846;4.388;2022-07-23T13:08:38;7.55;;;6.57;;
14518;SDS011;7346;50.846;4.388;2022-07-23T13:11:06;8.90;;;6.65;;
14518;SDS011;7346;50.846;4.388;2022-07-23T13:13:34;8.60;;;6.70;;
14518;SDS011;7346;50.846;4.388;2022-07-23T13:16:01;8.88;;;5.53;;
14518;SDS011;7346;50.846;4.388;2022-07-23T13:18:29;8.63;;;6.65;;
14518;SDS011;7346;50.846;4.388;2022-07-23T13:20:56;8.57;;;4.63;;
14518;SDS011;7346;50.846;4.388;2022-07-23T13:23:23;7.20;;;4.68;;
14518;SDS011;7346;50.846;4.388;2022-07-23T13:25:53;7.90;;;4.25;;
14518;SDS011;7346;50.846;4.388;2022-07-23T13:28:20;6.22;;;4.18;;
14518;SDS011;7346;50.846;4.388;2022-07-23T13:30:48;5.90;;;3.85;;
14518;SDS011;7346;50.846;4.388;2022-07-23T13:33:16;7.03;;;4.55;;
14518;SDS011;7346;50.846;4.388;2022-07-23T13:35:44;6.85;;;4.00;;
14518;SDS011;7346;50.846;4.388;2022-07-23T13:38:12;6.57;;;3.63;;
14518;SDS011;7346;50.846;4.388;2022-07-23T13:40:40;7.05;;;3.80;;
14518;SDS011;7346;50.846;4.388;2022-07-23T13:43:10;6.97;;;3.63;;
14518;SDS011;7346;50.846;4.388;2022-07-23T13:45:38;4.57;;;3.22;;
14518;SDS011;7346;50.846;4.388;2022-07-23T13:48:13;4.32;;;3.88;;
14518;SDS011;7346;50.846;4.388;2022-07-23T13:50:41;5.90;;;3.63;;
14518;SDS011;7346;50.846;4.388;2022-07-23T13:53:09;6.55;;;3.22;;
14518;SDS011;7346;50.846;4.388;2022-07-23T13:55:37;8.00;;;3.35;;
14518;SDS011;7346;50.846;4.388;2022-07-23T13:58:06;5.63;;;3.28;;
14518;SDS011;7346;50.846;4.388;2022-07-23T14:00:37;8.05;;;5.13;;
14518;SDS011;7346;50.846;4.388;2022-07-23T14:03:05;6.65;;;4.78;;
14518;SDS011;7346;50.846;4.388;2022-07-23T14:05:32;7.28;;;3.67;;
14518;SDS011;7346;50.846;4.388;2022-07-23T14:07:59;7.40;;;3.58;;
14518;SDS011;7346;50.846;4.388;2022-07-23T14:10:26;8.40;;;3.60;;
14518;SDS011;7346;50.846;4.388;2022-07-23T14:12:54;6.90;;;3.40;;
14518;SDS011;7346;50.846;4.388;2022-07-23T14:15:23;6.78;;;3.28;;
14518;SDS011;7346;50.846;4.388;2022-07-23T14:17:53;8.40;;;3.28;;
14518;SDS011;7346;50.846;4.388;2022-07-23T14:20:21;6.82;;;3.22;;
14518;SDS011;7346;50.846;4.388;2022-07-23T14:22:48;8.38;;;3.67;;
14518;SDS011;7346;50.846;4.388;2022-07-23T14:25:16;5.03;;;3.08;;
14518;SDS011;7346;50.846;4.388;2022-07-23T14:27:45;10.43;;;3.40;;
14518;SDS011;7346;50.846;4.388;2022-07-23T14:30:12;5.88;;;3.40;;
14518;SDS011;7346;50.846;4.388;2022-07-23T14:32:40;7.95;;;3.40;;
14518;SDS011;7346;50.846;4.388;2022-07-23T14:35:08;4.72;;;3.05;;
14518;SDS011;7346;50.846;4.388;2022-07-23T14:37:35;4.82;;;3.25;;
14518;SDS011;7346;50.846;4.388;2022-07-23T14:40:03;5.80;;;3.25;;
14518;SDS011;7346;50.846;4.388;2022-07-23T14:42:37;6.95;;;3.60;;
14518;SDS011;7346;50.846;4.388;2022-07-23T14:45:04;6.80;;;3.55;;
14518;SDS011;7346;50.846;4.388;2022-07-23T14:47:32;12.98;;;3.95;;
14518;SDS011;7346;50.846;4.388;2022-07-23T14:49:59;7.03;;;3.92;;
14518;SDS011;7346;50.846;4.388;2022-07-23T14:52:27;4.47;;;3.38;;
14518;SDS011;7346;50.846;4.388;2022-07-23T14:54:54;3.92;;;3.22;;
14518;SDS011;7346;50.846;4.388;2022-07-23T14:57:22;6.75;;;3.90;;
14518;SDS011;7346;50.846;4.388;2022-07-23T14:59:48;5.07;;;3.50;;
14518;SDS011;7346;50.846;4.388;2022-07-23T15:02:15;5.22;;;3.38;;
14518;SDS011;7346;50.846;4.388;2022-07-23T15:04:43;4.15;;;3.42;;
14518;SDS011;7346;50.846;4.388;2022-07-23T15:07:10;5.25;;;3.28;;
14518;SDS011;7346;50.846;4.388;2022-07-23T15:09:44;4.13;;;3.28;;
14518;SDS011;7346;50.846;4.388;2022-07-23T15:12:11;4.13;;;3.03;;
14518;SDS011;7346;50.846;4.388;2022-07-23T15:14:38;3.95;;;3.20;;
14518;SDS011;7346;50.846;4.388;2022-07-23T15:17:05;7.97;;;3.33;;